sensor_id;sensor_type;location;lat;lon;timestamp;P1;durP1;ratioP1;P2;durP2;ratioP2
50122;SDS011;36021;48.670;6.184;2022-08-19T00:00:24;4.90;;;3.22;;
50122;SDS011;36021;48.670;6.184;2022-08-19T00:02:50;4.70;;;3.33;;
50122;SDS011;36021;48.670;6.184;2022-08-19T00:05:15;5.25;;;3.70;;
50122;SDS011;36021;48.670;6.184;2022-08-19T00:07:42;4.97;;;3.13;;
50122;SDS011;36021;48.670;6.184;2022-08-19T00:10:09;5.22;;;3.15;;
50122;SDS011;36021;48.670;6.184;2022-08-19T00:12:36;5.20;;;3.70;;
50122;SDS011;36021;48.670;6.184;2022-08-19T00:15:08;5.13;;;3.35;;
50122;SDS011;36021;48.670;6.184;2022-08-19T00:17:37;6.20;;;3.42;;
50122;SDS011;36021;48.670;6.184;2022-08-19T00:20:04;5.47;;;3.60;;
50122;SDS011;36021;48.670;6.184;2022-08-19T00:22:31;5.82;;;3.58;;
50122;SDS011;36021;48.670;6.184;2022-08-19T00:24:57;6.03;;;3.30;;
50122;SDS011;36021;48.670;6.184;2022-08-19T00:27:23;5.22;;;4.03;;
50122;SDS011;36021;48.670;6.184;2022-08-19T00:29:49;6.60;;;3.80;;
50122;SDS011;36021;48.670;6.184;2022-08-19T00:32:15;7.72;;;3.38;;
50122;SDS011;36021;48.670;6.184;2022-08-19T00:34:42;7.45;;;3.63;;
50122;SDS011;36021;48.670;6.184;2022-08-19T00:37:08;5.10;;;3.60;;
50122;SDS011;36021;48.670;6.184;2022-08-19T00:39:34;4.72;;;3.38;;
50122;SDS011;36021;48.670;6.184;2022-08-19T00:42:00;4.55;;;3.67;;
50122;SDS011;36021;48.670;6.184;2022-08-19T00:44:27;4.65;;;3.13;;
50122;SDS011;36021;48.670;6.184;2022-08-19T00:46:55;5.75;;;3.50;;
50122;SDS011;36021;48.670;6.184;2022-08-19T00:52:15;6.82;;;3.58;;
50122;SDS011;36021;48.670;6.184;2022-08-19T00:55:18;4.78;;;3.28;;
50122;SDS011;36021;48.670;6.184;2022-08-19T00:57:51;4.65;;;3.22;;
50122;SDS011;36021;48.670;6.184;2022-08-19T01:00:21;4.70;;;3.20;;
50122;SDS011;36021;48.670;6.184;2022-08-19T01:02:48;5.13;;;3.40;;
50122;SDS011;36021;48.670;6.184;2022-08-19T01:05:15;5.97;;;3.20;;
50122;SDS011;36021;48.670;6.184;2022-08-19T01:07:46;6.25;;;4.03;;
50122;SDS011;36021;48.670;6.184;2022-08-19T01:10:18;7.50;;;3.65;;
50122;SDS011;36021;48.670;6.184;2022-08-19T01:12:46;5.57;;;3.42;;
50122;SDS011;36021;48.670;6.184;2022-08-19T01:15:14;7.35;;;3.50;;
50122;SDS011;36021;48.670;6.184;2022-08-19T01:17:44;6.53;;;3.15;;
50122;SDS011;36021;48.670;6.184;2022-08-19T01:20:14;6.07;;;3.38;;
50122;SDS011;36021;48.670;6.184;2022-08-19T01:23:15;6.78;;;3.90;;
50122;SDS011;36021;48.670;6.184;2022-08-19T01:25:56;5.88;;;3.50;;
50122;SDS011;36021;48.670;6.184;2022-08-19T01:28:23;9.52;;;3.15;;
50122;SDS011;36021;48.670;6.184;2022-08-19T01:30:51;6.55;;;3.00;;
50122;SDS011;36021;48.670;6.184;2022-08-19T01:33:19;4.60;;;3.20;;
50122;SDS011;36021;48.670;6.184;2022-08-19T01:35:47;5.80;;;3.43;;
50122;SDS011;36021;48.670;6.184;2022-08-19T01:38:35;5.10;;;3.70;;
50122;SDS011;36021;48.670;6.184;2022-08-19T01:41:02;6.22;;;4.07;;
50122;SDS011;36021;48.670;6.184;2022-08-19T01:43:28;6.68;;;3.33;;
50122;SDS011;36021;48.670;6.184;2022-08-19T01:45:54;5.38;;;3.13;;
50122;SDS011;36021;48.670;6.184;2022-08-19T01:48:19;5.53;;;3.25;;
50122;SDS011;36021;48.670;6.184;2022-08-19T01:50:45;6.05;;;3.33;;
50122;SDS011;36021;48.670;6.184;2022-08-19T01:53:16;7.70;;;4.55;;
50122;SDS011;36021;48.670;6.184;2022-08-19T01:55:42;3.75;;;2.95;;
50122;SDS011;36021;48.670;6.184;2022-08-19T01:58:11;7.30;;;3.60;;
50122;SDS011;36021;48.670;6.184;2022-08-19T02:00:39;5.05;;;3.30;;
50122;SDS011;36021;48.670;6.184;2022-08-19T02:03:06;5.25;;;3.45;;
50122;SDS011;36021;48.670;6.184;2022-08-19T02:05:32;6.72;;;3.38;;
50122;SDS011;36021;48.670;6.184;2022-08-19T02:07:57;7.60;;;3.80;;
50122;SDS011;36021;48.670;6.184;2022-08-19T02:10:24;5.22;;;3.45;;
50122;SDS011;36021;48.670;6.184;2022-08-19T02:12:50;7.43;;;3.88;;
50122;SDS011;36021;48.670;6.184;2022-08-19T02:15:16;6.80;;;3.38;;
50122;SDS011;36021;48.670;6.184;2022-08-19T02:17:44;5.05;;;3.17;;
50122;SDS011;36021;48.670;6.184;2022-08-19T02:20:11;5.57;;;4.00;;
50122;SDS011;36021;48.670;6.184;2022-08-19T02:22:39;5.55;;;3.70;;
50122;SDS011;36021;48.670;6.184;2022-08-19T02:25:08;5.00;;;3.40;;
50122;SDS011;36021;48.670;6.184;2022-08-19T02:27:36;3.95;;;2.80;;
50122;SDS011;36021;48.670;6.184;2022-08-19T02:30:02;6.65;;;3.10;;
50122;SDS011;36021;48.670;6.184;2022-08-19T02:32:29;6.93;;;3.27;;
50122;SDS011;36021;48.670;6.184;2022-08-19T02:34:57;5.30;;;3.55;;
50122;SDS011;36021;48.670;6.184;2022-08-19T02:37:24;6.68;;;2.97;;
50122;SDS011;36021;48.670;6.184;2022-08-19T02:40:08;4.40;;;3.35;;
50122;SDS011;36021;48.670;6.184;2022-08-19T02:42:34;4.50;;;3.35;;
50122;SDS011;36021;48.670;6.184;2022-08-19T02:44:59;5.30;;;3.25;;
50122;SDS011;36021;48.670;6.184;2022-08-19T02:47:25;7.80;;;3.28;;
50122;SDS011;36021;48.670;6.184;2022-08-19T02:49:51;7.25;;;3.42;;
50122;SDS011;36021;48.670;6.184;2022-08-19T02:52:17;6.38;;;3.15;;
50122;SDS011;36021;48.670;6.184;2022-08-19T02:54:42;4.93;;;3.80;;
50122;SDS011;36021;48.670;6.184;2022-08-19T02:57:09;6.05;;;3.80;;
50122;SDS011;36021;48.670;6.184;2022-08-19T02:59:34;6.75;;;3.75;;
50122;SDS011;36021;48.670;6.184;2022-08-19T03:02:00;6.22;;;4.10;;
50122;SDS011;36021;48.670;6.184;2022-08-19T03:04:26;6.90;;;4.50;;
50122;SDS011;36021;48.670;6.184;2022-08-19T03:06:52;7.15;;;4.15;;
50122;SDS011;36021;48.670;6.184;2022-08-19T03:09:19;6.47;;;3.38;;
50122;SDS011;36021;48.670;6.184;2022-08-19T03:11:45;8.57;;;3.95;;
50122;SDS011;36021;48.670;6.184;2022-08-19T03:14:11;6.88;;;4.10;;
50122;SDS011;36021;48.670;6.184;2022-08-19T03:16:46;7.38;;;4.05;;
50122;SDS011;36021;48.670;6.184;2022-08-19T03:19:14;5.70;;;3.92;;
50122;SDS011;36021;48.670;6.184;2022-08-19T03:21:42;7.43;;;4.07;;
50122;SDS011;36021;48.670;6.184;2022-08-19T03:24:12;9.23;;;3.83;;
50122;SDS011;36021;48.670;6.184;2022-08-19T03:26:44;5.30;;;3.45;;
50122;SDS011;36021;48.670;6.184;2022-08-19T03:29:13;7.88;;;4.28;;
50122;SDS011;36021;48.670;6.184;2022-08-19T03:31:39;6.38;;;3.60;;
50122;SDS011;36021;48.670;6.184;2022-08-19T03:34:06;6.30;;;3.88;;
50122;SDS011;36021;48.670;6.184;2022-08-19T03:36:32;9.25;;;4.40;;
50122;SDS011;36021;48.670;6.184;2022-08-19T03:38:59;8.02;;;4.07;;
50122;SDS011;36021;48.670;6.184;2022-08-19T03:41:27;6.07;;;4.00;;
50122;SDS011;36021;48.670;6.184;2022-08-19T03:44:02;7.25;;;3.58;;
50122;SDS011;36021;48.670;6.184;2022-08-19T03:46:30;7.68;;;3.95;;
50122;SDS011;36021;48.670;6.184;2022-08-19T03:48:58;5.38;;;3.65;;
50122;SDS011;36021;48.670;6.184;2022-08-19T03:51:26;8.43;;;3.63;;
50122;SDS011;36021;48.670;6.184;2022-08-19T03:53:56;7.38;;;3.95;;
50122;SDS011;36021;48.670;6.184;2022-08-19T03:56:23;8.52;;;4.00;;
50122;SDS011;36021;48.670;6.184;2022-08-19T03:58:51;5.60;;;3.63;;
50122;SDS011;36021;48.670;6.184;2022-08-19T04:01:19;7.47;;;4.00;;
50122;SDS011;36021;48.670;6.184;2022-08-19T04:03:47;6.13;;;3.80;;
50122;SDS011;36021;48.670;6.184;2022-08-19T04:06:14;5.78;;;3.75;;
50122;SDS011;36021;48.670;6.184;2022-08-19T04:08:48;7.18;;;4.13;;
50122;SDS011;36021;48.670;6.184;2022-08-19T04:13:43;6.57;;;4.15;;
50122;SDS011;36021;48.670;6.184;2022-08-19T04:16:09;4.47;;;3.38;;
50122;SDS011;36021;48.670;6.184;2022-08-19T04:18:36;5.95;;;3.60;;
50122;SDS011;36021;48.670;6.184;2022-08-19T04:21:04;5.32;;;3.40;;
50122;SDS011;36021;48.670;6.184;2022-08-19T04:23:30;6.65;;;4.00;;
50122;SDS011;36021;48.670;6.184;2022-08-19T04:25:56;7.72;;;4.07;;
50122;SDS011;36021;48.670;6.184;2022-08-19T04:28:24;6.18;;;4.15;;
50122;SDS011;36021;48.670;6.184;2022-08-19T04:30:51;6.18;;;4.18;;
50122;SDS011;36021;48.670;6.184;2022-08-19T04:33:22;4.53;;;3.20;;
50122;SDS011;36021;48.670;6.184;2022-08-19T04:35:51;6.28;;;3.75;;
50122;SDS011;36021;48.670;6.184;2022-08-19T04:38:20;6.67;;;3.63;;
50122;SDS011;36021;48.670;6.184;2022-08-19T04:40:50;5.70;;;3.85;;
50122;SDS011;36021;48.670;6.184;2022-08-19T04:43:35;5.90;;;3.95;;
50122;SDS011;36021;48.670;6.184;2022-08-19T04:46:09;7.07;;;4.43;;
50122;SDS011;36021;48.670;6.184;2022-08-19T04:48:37;8.27;;;4.65;;
50122;SDS011;36021;48.670;6.184;2022-08-19T04:51:09;6.85;;;4.22;;
50122;SDS011;36021;48.670;6.184;2022-08-19T04:53:38;11.07;;;5.13;;
50122;SDS011;36021;48.670;6.184;2022-08-19T04:56:12;7.57;;;4.35;;
50122;SDS011;36021;48.670;6.184;2022-08-19T04:58:41;5.50;;;4.10;;
50122;SDS011;36021;48.670;6.184;2022-08-19T05:01:08;7.40;;;4.75;;
50122;SDS011;36021;48.670;6.184;2022-08-19T05:03:38;5.88;;;3.63;;
50122;SDS011;36021;48.670;6.184;2022-08-19T05:06:05;3.83;;;3.17;;
50122;SDS011;36021;48.670;6.184;2022-08-19T05:08:35;8.38;;;4.47;;
50122;SDS011;36021;48.670;6.184;2022-08-19T05:11:13;6.55;;;4.40;;
50122;SDS011;36021;48.670;6.184;2022-08-19T05:13:42;7.78;;;4.40;;
50122;SDS011;36021;48.670;6.184;2022-08-19T05:16:09;6.70;;;4.78;;
50122;SDS011;36021;48.670;6.184;2022-08-19T05:18:36;8.68;;;4.30;;
50122;SDS011;36021;48.670;6.184;2022-08-19T05:21:21;8.45;;;4.45;;
50122;SDS011;36021;48.670;6.184;2022-08-19T05:24:06;9.55;;;5.50;;
50122;SDS011;36021;48.670;6.184;2022-08-19T05:29:05;7.65;;;4.43;;
50122;SDS011;36021;48.670;6.184;2022-08-19T05:31:32;9.67;;;4.97;;
50122;SDS011;36021;48.670;6.184;2022-08-19T05:34:02;9.02;;;4.60;;
50122;SDS011;36021;48.670;6.184;2022-08-19T05:36:29;8.10;;;4.23;;
50122;SDS011;36021;48.670;6.184;2022-08-19T05:39:04;13.98;;;5.55;;
50122;SDS011;36021;48.670;6.184;2022-08-19T05:41:31;10.05;;;4.97;;
50122;SDS011;36021;48.670;6.184;2022-08-19T05:43:57;9.18;;;5.53;;
50122;SDS011;36021;48.670;6.184;2022-08-19T05:46:23;7.45;;;4.97;;
50122;SDS011;36021;48.670;6.184;2022-08-19T05:48:49;7.97;;;4.63;;
50122;SDS011;36021;48.670;6.184;2022-08-19T05:51:15;8.85;;;5.00;;
50122;SDS011;36021;48.670;6.184;2022-08-19T05:53:41;12.05;;;5.68;;
50122;SDS011;36021;48.670;6.184;2022-08-19T05:56:11;8.20;;;5.07;;
50122;SDS011;36021;48.670;6.184;2022-08-19T05:58:41;9.10;;;5.40;;
50122;SDS011;36021;48.670;6.184;2022-08-19T06:01:13;8.63;;;4.78;;
50122;SDS011;36021;48.670;6.184;2022-08-19T06:03:40;8.48;;;5.20;;
50122;SDS011;36021;48.670;6.184;2022-08-19T06:06:07;9.85;;;4.93;;
50122;SDS011;36021;48.670;6.184;2022-08-19T06:08:34;9.52;;;6.05;;
50122;SDS011;36021;48.670;6.184;2022-08-19T06:11:15;10.90;;;4.93;;
50122;SDS011;36021;48.670;6.184;2022-08-19T06:13:44;8.73;;;5.22;;
50122;SDS011;36021;48.670;6.184;2022-08-19T06:16:13;9.35;;;6.00;;
50122;SDS011;36021;48.670;6.184;2022-08-19T06:18:44;13.88;;;5.80;;
50122;SDS011;36021;48.670;6.184;2022-08-19T06:21:10;8.18;;;4.53;;
50122;SDS011;36021;48.670;6.184;2022-08-19T06:23:36;10.20;;;5.15;;
50122;SDS011;36021;48.670;6.184;2022-08-19T06:26:01;9.52;;;5.28;;
50122;SDS011;36021;48.670;6.184;2022-08-19T06:28:27;8.82;;;5.50;;
50122;SDS011;36021;48.670;6.184;2022-08-19T06:30:52;8.80;;;4.63;;
50122;SDS011;36021;48.670;6.184;2022-08-19T06:33:19;12.23;;;5.20;;
50122;SDS011;36021;48.670;6.184;2022-08-19T06:35:45;6.60;;;4.57;;
50122;SDS011;36021;48.670;6.184;2022-08-19T06:38:10;7.63;;;4.53;;
50122;SDS011;36021;48.670;6.184;2022-08-19T06:40:36;9.43;;;5.43;;
50122;SDS011;36021;48.670;6.184;2022-08-19T06:43:03;6.95;;;4.30;;
50122;SDS011;36021;48.670;6.184;2022-08-19T06:45:29;10.82;;;5.10;;
50122;SDS011;36021;48.670;6.184;2022-08-19T06:47:55;8.30;;;5.30;;
50122;SDS011;36021;48.670;6.184;2022-08-19T06:50:22;8.82;;;4.95;;
50122;SDS011;36021;48.670;6.184;2022-08-19T06:52:48;7.03;;;3.85;;
50122;SDS011;36021;48.670;6.184;2022-08-19T06:55:14;7.07;;;4.65;;
50122;SDS011;36021;48.670;6.184;2022-08-19T06:57:41;9.27;;;5.30;;
50122;SDS011;36021;48.670;6.184;2022-08-19T07:00:07;6.82;;;4.85;;
50122;SDS011;36021;48.670;6.184;2022-08-19T07:02:40;10.85;;;5.20;;
50122;SDS011;36021;48.670;6.184;2022-08-19T07:05:06;9.65;;;5.07;;
50122;SDS011;36021;48.670;6.184;2022-08-19T07:07:33;7.43;;;5.10;;
50122;SDS011;36021;48.670;6.184;2022-08-19T07:10:00;7.60;;;4.32;;
50122;SDS011;36021;48.670;6.184;2022-08-19T07:12:26;8.02;;;5.22;;
50122;SDS011;36021;48.670;6.184;2022-08-19T07:14:53;8.70;;;5.35;;
50122;SDS011;36021;48.670;6.184;2022-08-19T07:17:19;9.18;;;5.18;;
50122;SDS011;36021;48.670;6.184;2022-08-19T07:19:45;9.82;;;5.72;;
50122;SDS011;36021;48.670;6.184;2022-08-19T07:22:11;10.23;;;5.47;;
50122;SDS011;36021;48.670;6.184;2022-08-19T07:24:37;9.63;;;4.63;;
50122;SDS011;36021;48.670;6.184;2022-08-19T07:27:05;10.00;;;4.90;;
50122;SDS011;36021;48.670;6.184;2022-08-19T07:29:32;8.32;;;5.53;;
50122;SDS011;36021;48.670;6.184;2022-08-19T07:32:00;7.72;;;5.63;;
50122;SDS011;36021;48.670;6.184;2022-08-19T07:34:28;9.98;;;6.00;;
50122;SDS011;36021;48.670;6.184;2022-08-19T07:36:55;12.75;;;5.43;;
50122;SDS011;36021;48.670;6.184;2022-08-19T07:39:31;8.13;;;5.25;;
50122;SDS011;36021;48.670;6.184;2022-08-19T07:42:00;9.20;;;5.43;;
50122;SDS011;36021;48.670;6.184;2022-08-19T07:44:28;9.75;;;6.03;;
50122;SDS011;36021;48.670;6.184;2022-08-19T07:46:55;13.88;;;5.90;;
50122;SDS011;36021;48.670;6.184;2022-08-19T07:49:22;14.10;;;5.63;;
50122;SDS011;36021;48.670;6.184;2022-08-19T07:52:07;10.05;;;5.03;;
50122;SDS011;36021;48.670;6.184;2022-08-19T07:54:34;11.23;;;4.78;;
50122;SDS011;36021;48.670;6.184;2022-08-19T07:57:01;8.27;;;5.77;;
50122;SDS011;36021;48.670;6.184;2022-08-19T07:59:28;8.55;;;5.22;;
50122;SDS011;36021;48.670;6.184;2022-08-19T08:01:54;10.45;;;5.47;;
50122;SDS011;36021;48.670;6.184;2022-08-19T08:04:20;10.38;;;5.82;;
50122;SDS011;36021;48.670;6.184;2022-08-19T08:07:05;9.80;;;5.50;;
50122;SDS011;36021;48.670;6.184;2022-08-19T08:09:51;13.65;;;5.93;;
50122;SDS011;36021;48.670;6.184;2022-08-19T08:12:19;14.32;;;7.05;;
50122;SDS011;36021;48.670;6.184;2022-08-19T08:14:51;11.48;;;5.88;;
50122;SDS011;36021;48.670;6.184;2022-08-19T08:17:21;11.75;;;6.03;;
50122;SDS011;36021;48.670;6.184;2022-08-19T08:19:49;12.63;;;6.50;;
50122;SDS011;36021;48.670;6.184;2022-08-19T08:25:05;11.13;;;5.10;;
50122;SDS011;36021;48.670;6.184;2022-08-19T08:27:38;9.82;;;5.88;;
50122;SDS011;36021;48.670;6.184;2022-08-19T08:30:08;9.93;;;5.45;;
50122;SDS011;36021;48.670;6.184;2022-08-19T08:32:35;15.20;;;5.75;;
50122;SDS011;36021;48.670;6.184;2022-08-19T08:35:04;10.80;;;6.15;;
50122;SDS011;36021;48.670;6.184;2022-08-19T08:37:32;9.23;;;5.32;;
50122;SDS011;36021;48.670;6.184;2022-08-19T08:39:57;11.43;;;6.28;;
50122;SDS011;36021;48.670;6.184;2022-08-19T08:42:31;10.95;;;6.13;;
50122;SDS011;36021;48.670;6.184;2022-08-19T08:45:11;10.13;;;5.90;;
50122;SDS011;36021;48.670;6.184;2022-08-19T08:47:41;9.43;;;5.93;;
50122;SDS011;36021;48.670;6.184;2022-08-19T08:52:45;10.70;;;5.68;;
50122;SDS011;36021;48.670;6.184;2022-08-19T08:55:15;9.95;;;6.40;;
50122;SDS011;36021;48.670;6.184;2022-08-19T09:00:18;9.68;;;6.05;;
50122;SDS011;36021;48.670;6.184;2022-08-19T09:02:46;10.77;;;5.22;;
50122;SDS011;36021;48.670;6.184;2022-08-19T09:05:12;8.43;;;5.43;;
50122;SDS011;36021;48.670;6.184;2022-08-19T09:15:45;10.40;;;6.28;;
50122;SDS011;36021;48.670;6.184;2022-08-19T09:18:17;8.88;;;5.70;;
50122;SDS011;36021;48.670;6.184;2022-08-19T09:20:43;10.18;;;5.60;;
50122;SDS011;36021;48.670;6.184;2022-08-19T09:23:12;8.73;;;5.68;;
50122;SDS011;36021;48.670;6.184;2022-08-19T09:25:40;9.38;;;5.57;;
50122;SDS011;36021;48.670;6.184;2022-08-19T09:28:07;9.18;;;5.25;;
50122;SDS011;36021;48.670;6.184;2022-08-19T09:30:34;11.82;;;6.30;;
50122;SDS011;36021;48.670;6.184;2022-08-19T09:33:05;12.15;;;5.75;;
50122;SDS011;36021;48.670;6.184;2022-08-19T09:35:34;15.90;;;6.70;;
50122;SDS011;36021;48.670;6.184;2022-08-19T09:38:01;11.68;;;7.15;;
50122;SDS011;36021;48.670;6.184;2022-08-19T09:40:27;12.07;;;6.15;;
50122;SDS011;36021;48.670;6.184;2022-08-19T09:42:54;7.80;;;5.78;;
50122;SDS011;36021;48.670;6.184;2022-08-19T09:45:20;11.30;;;6.63;;
50122;SDS011;36021;48.670;6.184;2022-08-19T09:47:47;10.45;;;6.53;;
50122;SDS011;36021;48.670;6.184;2022-08-19T09:50:16;9.65;;;6.25;;
50122;SDS011;36021;48.670;6.184;2022-08-19T09:52:43;9.80;;;5.50;;
50122;SDS011;36021;48.670;6.184;2022-08-19T09:55:09;7.88;;;4.68;;
50122;SDS011;36021;48.670;6.184;2022-08-19T09:57:36;7.93;;;5.57;;
50122;SDS011;36021;48.670;6.184;2022-08-19T10:00:06;8.68;;;5.55;;
50122;SDS011;36021;48.670;6.184;2022-08-19T10:02:34;10.68;;;5.47;;
50122;SDS011;36021;48.670;6.184;2022-08-19T10:05:00;11.38;;;7.32;;
50122;SDS011;36021;48.670;6.184;2022-08-19T10:07:44;10.48;;;5.93;;
50122;SDS011;36021;48.670;6.184;2022-08-19T10:10:10;13.07;;;6.13;;
50122;SDS011;36021;48.670;6.184;2022-08-19T10:12:36;9.75;;;5.50;;
50122;SDS011;36021;48.670;6.184;2022-08-19T10:15:02;9.40;;;5.95;;
50122;SDS011;36021;48.670;6.184;2022-08-19T10:17:29;8.83;;;5.10;;
50122;SDS011;36021;48.670;6.184;2022-08-19T10:19:55;10.75;;;5.38;;
50122;SDS011;36021;48.670;6.184;2022-08-19T10:22:20;9.15;;;5.53;;
50122;SDS011;36021;48.670;6.184;2022-08-19T10:24:47;9.52;;;5.03;;
50122;SDS011;36021;48.670;6.184;2022-08-19T10:27:15;11.27;;;6.05;;
50122;SDS011;36021;48.670;6.184;2022-08-19T10:29:40;9.48;;;5.50;;
50122;SDS011;36021;48.670;6.184;2022-08-19T10:32:08;10.48;;;5.75;;
50122;SDS011;36021;48.670;6.184;2022-08-19T10:34:34;13.00;;;5.97;;
50122;SDS011;36021;48.670;6.184;2022-08-19T10:37:04;9.10;;;5.93;;
50122;SDS011;36021;48.670;6.184;2022-08-19T10:39:32;12.50;;;6.93;;
50122;SDS011;36021;48.670;6.184;2022-08-19T10:41:59;10.18;;;5.88;;
50122;SDS011;36021;48.670;6.184;2022-08-19T10:44:29;11.73;;;5.60;;
50122;SDS011;36021;48.670;6.184;2022-08-19T10:46:56;12.40;;;6.00;;
50122;SDS011;36021;48.670;6.184;2022-08-19T10:49:21;9.75;;;6.30;;
50122;SDS011;36021;48.670;6.184;2022-08-19T10:51:49;8.05;;;5.32;;
50122;SDS011;36021;48.670;6.184;2022-08-19T10:54:34;11.38;;;6.05;;
50122;SDS011;36021;48.670;6.184;2022-08-19T10:57:18;11.27;;;5.47;;
50122;SDS011;36021;48.670;6.184;2022-08-19T10:59:44;10.43;;;5.85;;
50122;SDS011;36021;48.670;6.184;2022-08-19T11:02:10;7.82;;;5.35;;
50122;SDS011;36021;48.670;6.184;2022-08-19T11:04:37;9.55;;;5.15;;
50122;SDS011;36021;48.670;6.184;2022-08-19T11:07:03;9.57;;;6.07;;
50122;SDS011;36021;48.670;6.184;2022-08-19T11:09:30;7.72;;;4.88;;
50122;SDS011;36021;48.670;6.184;2022-08-19T11:11:56;8.70;;;5.55;;
50122;SDS011;36021;48.670;6.184;2022-08-19T11:14:22;9.90;;;6.90;;
50122;SDS011;36021;48.670;6.184;2022-08-19T11:16:49;11.70;;;7.22;;
50122;SDS011;36021;48.670;6.184;2022-08-19T11:19:15;8.13;;;5.88;;
50122;SDS011;36021;48.670;6.184;2022-08-19T11:21:45;10.07;;;5.85;;
50122;SDS011;36021;48.670;6.184;2022-08-19T11:24:14;10.00;;;5.70;;
50122;SDS011;36021;48.670;6.184;2022-08-19T11:26:43;8.40;;;5.15;;
50122;SDS011;36021;48.670;6.184;2022-08-19T11:29:10;9.32;;;5.50;;
50122;SDS011;36021;48.670;6.184;2022-08-19T11:34:06;8.20;;;5.07;;
50122;SDS011;36021;48.670;6.184;2022-08-19T11:36:36;11.45;;;5.13;;
50122;SDS011;36021;48.670;6.184;2022-08-19T11:39:04;7.72;;;5.38;;
50122;SDS011;36021;48.670;6.184;2022-08-19T11:41:32;6.72;;;4.55;;
50122;SDS011;36021;48.670;6.184;2022-08-19T11:43:57;7.93;;;5.22;;
50122;SDS011;36021;48.670;6.184;2022-08-19T11:46:23;11.43;;;5.38;;
50122;SDS011;36021;48.670;6.184;2022-08-19T11:48:51;9.73;;;5.18;;
50122;SDS011;36021;48.670;6.184;2022-08-19T11:51:18;10.07;;;5.90;;
50122;SDS011;36021;48.670;6.184;2022-08-19T11:53:45;11.10;;;5.78;;
50122;SDS011;36021;48.670;6.184;2022-08-19T11:56:12;7.82;;;5.43;;
50122;SDS011;36021;48.670;6.184;2022-08-19T11:58:38;8.80;;;5.40;;
50122;SDS011;36021;48.670;6.184;2022-08-19T12:01:11;9.45;;;5.25;;
50122;SDS011;36021;48.670;6.184;2022-08-19T12:03:39;9.32;;;5.45;;
50122;SDS011;36021;48.670;6.184;2022-08-19T12:06:06;12.30;;;5.88;;
50122;SDS011;36021;48.670;6.184;2022-08-19T12:08:33;9.60;;;5.65;;
50122;SDS011;36021;48.670;6.184;2022-08-19T12:10:59;9.68;;;5.75;;
50122;SDS011;36021;48.670;6.184;2022-08-19T12:13:29;9.57;;;4.80;;
50122;SDS011;36021;48.670;6.184;2022-08-19T12:15:56;8.63;;;4.50;;
50122;SDS011;36021;48.670;6.184;2022-08-19T12:18:22;5.32;;;4.30;;
50122;SDS011;36021;48.670;6.184;2022-08-19T12:20:52;5.97;;;3.53;;
50122;SDS011;36021;48.670;6.184;2022-08-19T12:23:19;5.13;;;3.28;;
50122;SDS011;36021;48.670;6.184;2022-08-19T12:25:47;5.25;;;3.30;;
50122;SDS011;36021;48.670;6.184;2022-08-19T12:28:19;4.70;;;3.42;;
50122;SDS011;36021;48.670;6.184;2022-08-19T12:30:46;5.18;;;3.75;;
50122;SDS011;36021;48.670;6.184;2022-08-19T12:33:18;5.47;;;3.65;;
50122;SDS011;36021;48.670;6.184;2022-08-19T12:35:48;4.28;;;2.45;;
50122;SDS011;36021;48.670;6.184;2022-08-19T12:38:14;3.83;;;2.63;;
50122;SDS011;36021;48.670;6.184;2022-08-19T12:40:40;4.57;;;2.55;;
50122;SDS011;36021;48.670;6.184;2022-08-19T12:43:07;4.18;;;2.47;;
50122;SDS011;36021;48.670;6.184;2022-08-19T12:45:33;4.38;;;2.80;;
50122;SDS011;36021;48.670;6.184;2022-08-19T12:47:59;4.63;;;2.60;;
50122;SDS011;36021;48.670;6.184;2022-08-19T12:50:25;3.50;;;2.03;;
50122;SDS011;36021;48.670;6.184;2022-08-19T12:52:51;3.55;;;2.15;;
50122;SDS011;36021;48.670;6.184;2022-08-19T12:55:17;3.03;;;2.28;;
50122;SDS011;36021;48.670;6.184;2022-08-19T12:57:44;2.53;;;1.83;;
50122;SDS011;36021;48.670;6.184;2022-08-19T13:00:12;1.75;;;1.65;;
50122;SDS011;36021;48.670;6.184;2022-08-19T13:02:41;1.80;;;1.70;;
50122;SDS011;36021;48.670;6.184;2022-08-19T13:05:10;3.22;;;1.80;;
50122;SDS011;36021;48.670;6.184;2022-08-19T13:07:39;2.25;;;1.70;;
50122;SDS011;36021;48.670;6.184;2022-08-19T13:10:06;1.90;;;1.45;;
50122;SDS011;36021;48.670;6.184;2022-08-19T13:12:34;3.40;;;2.15;;
50122;SDS011;36021;48.670;6.184;2022-08-19T13:15:00;2.17;;;1.50;;
50122;SDS011;36021;48.670;6.184;2022-08-19T13:17:27;2.47;;;1.50;;
50122;SDS011;36021;48.670;6.184;2022-08-19T13:19:52;1.90;;;1.55;;
50122;SDS011;36021;48.670;6.184;2022-08-19T13:22:18;2.97;;;1.73;;
50122;SDS011;36021;48.670;6.184;2022-08-19T13:24:44;1.77;;;1.40;;
50122;SDS011;36021;48.670;6.184;2022-08-19T13:27:11;1.42;;;1.25;;
50122;SDS011;36021;48.670;6.184;2022-08-19T13:29:36;1.20;;;1.10;;
50122;SDS011;36021;48.670;6.184;2022-08-19T13:32:20;1.58;;;1.35;;
50122;SDS011;36021;48.670;6.184;2022-08-19T13:35:05;3.10;;;1.10;;
50122;SDS011;36021;48.670;6.184;2022-08-19T13:37:31;1.35;;;1.25;;
50122;SDS011;36021;48.670;6.184;2022-08-19T13:40:19;1.20;;;1.10;;
50122;SDS011;36021;48.670;6.184;2022-08-19T13:42:52;1.70;;;1.00;;
50122;SDS011;36021;48.670;6.184;2022-08-19T13:45:20;1.02;;;0.95;;
50122;SDS011;36021;48.670;6.184;2022-08-19T13:47:48;3.35;;;1.13;;
50122;SDS011;36021;48.670;6.184;2022-08-19T13:50:16;1.20;;;1.10;;
50122;SDS011;36021;48.670;6.184;2022-08-19T13:52:44;0.80;;;0.80;;
50122;SDS011;36021;48.670;6.184;2022-08-19T13:55:11;1.23;;;0.90;;
50122;SDS011;36021;48.670;6.184;2022-08-19T13:57:37;0.80;;;0.80;;
50122;SDS011;36021;48.670;6.184;2022-08-19T14:00:08;1.92;;;0.70;;
50122;SDS011;36021;48.670;6.184;2022-08-19T14:02:38;0.95;;;0.70;;
50122;SDS011;36021;48.670;6.184;2022-08-19T14:05:05;1.75;;;0.52;;
50122;SDS011;36021;48.670;6.184;2022-08-19T14:07:33;0.60;;;0.60;;
50122;SDS011;36021;48.670;6.184;2022-08-19T14:09:58;0.63;;;0.60;;
50122;SDS011;36021;48.670;6.184;2022-08-19T14:12:24;1.67;;;0.50;;
50122;SDS011;36021;48.670;6.184;2022-08-19T14:14:50;1.48;;;1.02;;
50122;SDS011;36021;48.670;6.184;2022-08-19T14:17:16;0.52;;;0.52;;
50122;SDS011;36021;48.670;6.184;2022-08-19T14:19:42;2.47;;;0.82;;
50122;SDS011;36021;48.670;6.184;2022-08-19T14:22:08;0.40;;;0.40;;
50122;SDS011;36021;48.670;6.184;2022-08-19T14:24:34;0.73;;;0.40;;
50122;SDS011;36021;48.670;6.184;2022-08-19T14:27:02;0.50;;;0.40;;
50122;SDS011;36021;48.670;6.184;2022-08-19T14:29:29;0.20;;;0.20;;
50122;SDS011;36021;48.670;6.184;2022-08-19T14:31:55;0.90;;;0.35;;
50122;SDS011;36021;48.670;6.184;2022-08-19T14:34:25;1.45;;;0.38;;
50122;SDS011;36021;48.670;6.184;2022-08-19T14:36:51;0.75;;;0.57;;
50122;SDS011;36021;48.670;6.184;2022-08-19T14:39:18;1.70;;;0.30;;
50122;SDS011;36021;48.670;6.184;2022-08-19T14:41:43;0.60;;;0.40;;
50122;SDS011;36021;48.670;6.184;2022-08-19T14:44:10;0.50;;;0.25;;
50122;SDS011;36021;48.670;6.184;2022-08-19T14:46:37;0.40;;;0.28;;
50122;SDS011;36021;48.670;6.184;2022-08-19T14:49:03;0.40;;;0.40;;
50122;SDS011;36021;48.670;6.184;2022-08-19T14:51:30;0.30;;;0.30;;
50122;SDS011;36021;48.670;6.184;2022-08-19T14:53:57;0.45;;;0.45;;
50122;SDS011;36021;48.670;6.184;2022-08-19T14:56:24;0.95;;;0.40;;
50122;SDS011;36021;48.670;6.184;2022-08-19T14:58:52;0.20;;;0.20;;
50122;SDS011;36021;48.670;6.184;2022-08-19T15:01:18;0.47;;;0.30;;
50122;SDS011;36021;48.670;6.184;2022-08-19T15:03:46;0.45;;;0.30;;
50122;SDS011;36021;48.670;6.184;2022-08-19T15:06:12;0.50;;;0.22;;
50122;SDS011;36021;48.670;6.184;2022-08-19T15:08:38;0.30;;;0.30;;
50122;SDS011;36021;48.670;6.184;2022-08-19T15:11:10;0.20;;;0.20;;
50122;SDS011;36021;48.670;6.184;2022-08-19T15:13:42;0.30;;;0.30;;
50122;SDS011;36021;48.670;6.184;2022-08-19T15:16:10;0.32;;;0.20;;
50122;SDS011;36021;48.670;6.184;2022-08-19T15:18:36;0.80;;;0.27;;